Delaware County Johnson Field
KMIE : now visible

Airfield :











YOU CAN JOIN US ON...

 
LOGIN :

Register | Disclaimer

   EN    FR    IT 

 









Legend :    VFR   Marginal VFR   IFR   Intensive IFR   Very Intensive IFR
Visi :
Ceiling :
>= 8 km
>= 3000ft
5 to 8 km
1000 to 3000 ft
1500m to 5 km
500 to 1000 ft
800 to 1500m
200 to 500 ft
< 800m
< 200 ft
Symbols :   Thunderstorms  Fog  Heavy snow  Heavy precipitations  Wind > 20 kt






- Airport Elevation : 937 ft
- IATA code : MIE


KMIE - Delaware County Johnson Field

CURRENT METAR :
  • 250453Z AUTO 21005KT 10SM CLR 19/16 A2983 RMK AO2 LTG DSNT E AND SE SLP092 T01940161 402940161

EXPIRED METARs :
  • 250353Z AUTO 20005KT 10SM BKN060 19/16 A2983 RMK AO2 SLP092 T01890161
  • 250253Z AUTO 17006KT 10SM CLR 18/16 A2984 RMK AO2 RAE0157 SLP094 P0000 60030 T01780156 55016
  • 250153Z 14005KT 10SM -RA FEW050 SCT110 18/16 A2983 RMK AO2 RAE0055B41 SLP092 P0000 T01830161
  • 250001Z 33011G23KT 1 1/2SM +TSRA FEW016 SCT042 OVC049 18/16 A2988 RMK AO2 VIS 3/4V5 LTG DSNT ALQDS P0018 T01830156
  • 250100Z 00000KT 10SM FEW050 FEW095 BKN110 18/16 A2984 RMK AO2 LTG DSNT E-S RAE0055 P0000 T01830156
  • 250045Z 34006KT 10SM VCTS -RA SCT050 BKN060 OVC110 18/16 A2985 RMK AO2 LTG DSNT ALQDS TSE39 TS NW MOV S P0030 T01830156
  • 250011Z 32011KT 3SM -TSRA BR FEW025 BKN050 OVC085 18/16 A2987 RMK AO2 LTG DSNT ALQDS P0022 T01780161

TAF N/A
KZID FIR / North America



MET'MAP, your aeronautical weather chart ! - Copyright ORBIFLY December 2007 - Disclaimer

ORBIFLY MET'MAP TEAM :

Programming & Development : Alexandra Zaïnal
Original concept : Baudouin d'Aumeries
Technical & hardware support : Manuel Goepfert
Assistance : Marc-Olivier Méhu




SOURCES & CREDITS :

   NOAA       Earth
Advisory